Accueil
METAR-TAF:

METAR-TAF

Aéroports :

Aéroport international de Nouméa - La Tontouta

Nouméa / La Tontouta, Nouvelle-Calédonie

latitude: 22-01S, longitude: 166-13E, altitude: 16 m

Observation

Le bulletin a été fait il y a 39 minutes, à 04:30 UTC
Vent 12 kt de sud
Température 27°C
Humidité 70%
Pression 1013 hPa
Visibilité 10 km ou plus

METAR: NWWW 280430Z AUTO 17012KT 9999 FEW026/// ///TCU 27/21 Q1013 BECMG SCT035

Heure: 16:09 (05:09 UTC)

Prévision

Le bulletin a été fait il y a 6 heures et 9 minutes, à 23:00 UTC
Prévision valable du 28 à 00 UTC au 28 à 24 UTC
Vent 8 kt de sud/sud-est
Visibilité 10 km ou plus
Nuages épars à une hauteur de 3500 ft

TAF: NWWW 272300Z 2800/2824 15008KT 9999 SCT035

Observations et prévisions météorologiques de plus de 4000 aéroports (messages METAR et TAF).

Les stations disponibles sont représentées par des disques jaunes et rouges sur la carte.

Passer la souris dessus pour voir le nom de la station.

Cliquer dessus pour voir les observations et prévisions météorologiques.

Pour changer de carte: cliquez sur les boutons verts avec une croix noire pour zoomer, sur le bouton vert avec un tiret pour effectuer un zoom arrière, ou sur les flèches vertes pour les cartes adjacentes.


METAR-TAF: